Latest Weather Observations for Albury

IDV60801

Issued at 10:02 am EDT Thursday 23 January 2020 (issued every 10 minutes, with the page automatically refreshed every 10 minutes)

About weather observations | Map of weather stations | Latest weather observations for VIC | Other Formats
Station Details ID: 072160 Name: ALBURY AIRPORT AWS Lat: -36.07 Lon: 146.95 Height: 163.5 m
Data from the previous 72 hours. | See also: Recent months at Albury
Date/Time
EDT
Temp
°C
App
Temp
°C
Dew
Point
°C
Rel
Hum
%
Delta-T
°C
Wind Press
QNH
hPa
Press
MSL
hPa
Rain since
9am
mm
Dir  Spd
km/h
Gust
km/h
Spd
kts
Gust
kts
23/10:00am 18.8 18.2 14.5 76 2.5 W 11 19 6 10 1002.1 1001.3 0.0
23/09:30am 19.6 16.8 13.1 66 3.7 W 20 30 11 16 1002.2 1001.4 0.0
23/09:18am 20.2 16.9 12.9 63 4.2 W 22 32 12 17 1002.7 1001.9 0.0
23/09:00am 20.2 17.5 12.9 63 4.2 WSW 19 30 10 16 1000.6 999.8 0.0
23/08:30am 20.3 18.7 14.9 71 3.2 WSW 17 32 9 17 1000.9 1000.1 0.0
23/08:09am 20.5 15.9 14.6 69 3.5 WSW 32 61 17 33 1001.6 1000.8 0.0
23/08:06am 20.6 16.3 14.5 68 3.6 WSW 30 44 16 24 999.9 999.0 0.0
23/08:00am 20.7 16.7 14.1 66 3.9 WSW 28 46 15 25 999.3 998.4 0.0
23/07:59am 20.8 16.8 14.2 66 3.9 WSW 28 46 15 25 999.1 998.2 0.0
23/07:38am 21.9 19.3 13.8 60 4.7 WSW 20 35 11 19 999.3 998.4 0.0
23/07:30am 21.7 19.3 13.9 61 4.6 WSW 19 33 10 18 998.2 997.3 0.0
23/07:00am 22.6 20.4 13.4 56 5.4 W 17 28 9 15 997.7 996.8 0.0
23/06:30am 24.2 19.0 11.5 45 7.2 WNW 30 59 16 32 997.5 996.6 0.0
23/06:29am 24.9 19.9 11.1 42 7.8 WNW 28 59 15 32 997.6 996.7 0.0
23/06:27am 25.3 21.0 10.7 40 8.2 WNW 24 35 13 19 997.7 996.8 0.0
23/06:00am 27.9 23.4 6.1 25 11.6 WNW 19 26 10 14 995.6 994.8 0.0
23/05:30am 29.5 21.8 3.5 19 13.2 NNW 33 54 18 29 995.2 994.4 0.0
23/05:28am 30.5 22.3 2.7 17 14.1 NNW 35 54 19 29 995.1 994.3 0.0
23/05:00am 31.2 23.7 1.5 15 14.9 N 30 48 16 26 995.2 994.4 0.0
23/04:41am 31.2 24.1 1.5 15 14.8 N 28 52 15 28 995.0 994.2 0.0
23/04:30am 30.6 23.6 1.9 16 14.3 N 28 43 15 23 995.0 994.2 0.0
23/04:00am 29.3 24.1 3.3 19 13.3 NNE 20 30 11 16 995.6 994.8 0.0
23/03:43am 28.4 25.8 7.6 27 11.3 NE 11 24 6 13 995.9 995.1 0.0
23/03:30am 23.4 22.9 12.7 51 6.2 SSE 7 9 4 5 996.1 995.3 0.0
23/03:00am 23.5 23.4 13.4 53 5.9 SE 6 9 3 5 996.9 996.0 0.0
23/02:30am 24.0 24.9 12.9 50 6.4 CALM 0 6 0 3 997.6 996.7 0.0
23/02:00am 24.3 24.5 13.2 50 6.5 NE 4 7 2 4 998.3 997.4 0.0
23/01:30am 24.9 22.7 12.2 45 7.3 ENE 15 20 8 11 998.6 997.7 0.0
23/01:00am 24.1 23.8 12.7 49 6.6 SW 6 13 3 7 999.6 998.7 0.0
23/12:30am 25.8 25.2 10.4 38 8.6 SSE 4 7 2 4 999.4 998.5 0.0
23/12:00am 25.4 25.0 12.3 44 7.6 NNE 6 9 3 5 999.5 998.6 0.0
 
Date/Time
EDT
Temp
°C
App
Temp
°C
Dew
Point
°C
Rel
Hum
%
Delta-T
°C
Wind Press
QNH
hPa
Press
MSL
hPa
Rain since
9am
mm
Dir  Spd
km/h
Gust
km/h
Spd
kts
Gust
kts
22/11:30pm 25.6 26.3 12.1 43 7.8 CALM 0 0 0 0 999.9 999.0 0.0
22/11:00pm 26.3 25.8 10.9 38 8.8 W 4 9 2 5 1000.5 999.7 0.0
22/10:30pm 26.9 26.1 11.0 37 9.1 E 6 9 3 5 1000.3 999.5 0.0
22/10:00pm 27.5 27.2 10.2 34 9.8 ESE 2 9 1 5 1000.7 999.9 0.0
22/09:30pm 28.4 27.5 7.6 27 11.3 SSE 2 7 1 4 1000.9 1000.1 0.0
22/09:00pm 28.9 27.3 6.3 24 12.1 SW 4 7 2 4 1000.9 1000.1 0.0
22/08:30pm 30.3 26.7 4.9 20 13.3 SW 13 20 7 11 1001.0 1000.2 0.0
22/08:00pm 31.5 28.4 3.5 17 14.5 WNW 9 22 5 12 1000.9 1000.1 0.0
22/07:30pm 32.8 28.4 2.8 15 15.4 NNW 15 22 8 12 1001.3 1000.5 0.0
22/07:00pm 32.9 28.0 1.9 14 15.8 WNW 17 22 9 12 1001.5 1000.7 0.0
22/06:30pm 33.8 27.5 1.6 13 16.3 NW 24 35 13 19 1000.8 1000.0 0.0
22/06:00pm 34.1 28.0 2.8 14 16.3 NNW 24 32 13 17 1000.6 999.8 0.0
22/05:30pm 34.3 28.6 3.0 14 16.3 N 22 35 12 19 1001.0 1000.2 0.0
22/05:00pm 34.0 27.3 3.7 15 16.0 N 28 41 15 22 1001.3 1000.5 0.0
22/04:30pm 35.6 29.0 4.0 14 16.8 NNW 28 41 15 22 1002.0 1001.2 0.0
22/04:00pm 34.9 29.3 5.4 16 16.0 NNW 24 41 13 22 1002.6 1001.8 0.0
22/03:30pm 33.2 26.4 4.9 17 15.1 NNW 30 44 16 24 1003.3 1002.4 0.0
22/03:00pm 33.6 27.7 6.0 18 15.1 N 26 43 14 23 1003.8 1002.9 0.0
22/02:30pm 33.3 27.7 7.3 20 14.4 N 26 43 14 23 1004.3 1003.4 0.0
22/02:03pm 33.4 27.3 6.6 19 14.7 N 28 48 15 26 1005.0 1004.1 0.0
22/02:00pm 33.5 28.2 6.7 19 14.8 N 24 46 13 25 1005.1 1004.2 0.0
22/01:32pm 32.1 26.0 8.4 23 13.3 N 30 48 16 26 1005.3 1004.4 0.0
22/01:30pm 32.3 26.3 8.5 23 13.4 N 30 39 16 21 1005.3 1004.4 0.0
22/01:00pm 30.8 26.3 8.5 25 12.5 N 22 35 12 19 1005.8 1005.0 0.0
22/12:30pm 30.7 25.8 10.1 28 11.8 NNE 26 41 14 22 1006.5 1005.7 0.0
22/12:00pm 30.0 26.4 10.0 29 11.4 N 19 30 10 16 1007.0 1006.2 0.0
22/11:30am 29.8 26.0 11.3 32 10.7 N 22 32 12 17 1007.5 1006.7 0.0
22/11:00am 27.7 24.6 12.1 38 9.1 NNE 20 28 11 15 1008.0 1007.2 0.0
22/10:30am 27.0 25.2 13.4 43 8.1 NE 15 24 8 13 1008.4 1007.6 0.0
22/10:00am 24.6 24.8 15.8 58 5.4 E 9 13 5 7 1009.0 1008.2 0.0
22/09:30am 22.0 22.6 16.9 73 3.1 SE 9 13 5 7 1009.5 1008.6 0.0
22/09:00am 20.2 20.4 15.8 76 2.6 ESE 9 13 5 7 1009.8 1008.9 0.0
22/08:30am 18.6 18.6 15.3 81 1.9 ESE 9 11 5 6 1009.9 1009.0 0.0
22/08:00am 18.1 18.6 15.0 82 1.8 ESE 6 9 3 5 1009.8 1008.9 0.0
22/07:30am 17.2 19.0 15.5 90 1.0 CALM 0 0 0 0 1009.9 1009.0 0.0
22/07:00am 15.6 16.0 14.8 95 0.5 E 6 7 3 4 1009.7 1008.8 0.0
22/06:30am 15.1 16.2 14.6 97 0.3 ESE 2 7 1 4 1009.6 1008.7 0.0
22/06:00am 15.3 16.7 14.5 95 0.5 CALM 0 0 0 0 1009.5 1008.6 0.0
22/05:30am 15.5 17.0 14.7 95 0.5 CALM 0 0 0 0 1009.2 1008.4 0.0
22/05:00am 15.9 17.5 14.8 93 0.6 CALM 0 0 0 0 1008.9 1008.1 0.0
22/04:30am 16.2 17.0 14.7 91 0.9 ESE 4 7 2 4 1008.7 1007.9 0.0
22/04:00am 16.4 16.9 15.1 92 0.8 SE 6 7 3 4 1008.6 1007.8 0.0
22/03:30am 17.0 17.5 15.5 91 0.9 SE 7 9 4 5 1008.7 1007.9 0.0
22/03:00am 17.0 18.7 15.3 90 1.0 CALM 0 0 0 0 1008.6 1007.8 0.0
22/02:30am 17.1 18.9 15.6 91 0.9 CALM 0 4 0 2 1008.8 1008.0 0.0
22/02:00am 16.6 18.4 15.6 94 0.6 CALM 0 2 0 1 1009.2 1008.4 0.0
22/01:30am 16.9 17.7 15.9 94 0.6 SSE 6 7 3 4 1009.7 1008.8 0.0
22/01:00am 17.4 19.0 15.0 86 1.4 CALM 0 0 0 0 1009.7 1008.8 0.0
22/12:30am 18.5 20.2 15.2 81 1.9 CALM 0 0 0 0 1009.9 1009.0 0.0
22/12:00am 18.9 20.5 14.8 77 2.4 CALM 0 0 0 0 1009.9 1009.0 0.0
 
Date/Time
EDT
Temp
°C
App
Temp
°C
Dew
Point
°C
Rel
Hum
%
Delta-T
°C
Wind Press
QNH
hPa
Press
MSL
hPa
Rain since
9am
mm
Dir  Spd
km/h
Gust
km/h
Spd
kts
Gust
kts
21/11:30pm 20.0 21.8 15.4 75 2.7 CALM 0 0 0 0 1009.8 1008.9 0.0
21/11:00pm 20.1 20.3 14.2 69 3.4 NNW 6 9 3 5 1009.8 1008.9 0.0
21/10:30pm 20.9 22.5 14.8 68 3.6 CALM 0 0 0 0 1009.7 1008.8 0.0
21/10:00pm 21.8 23.1 14.2 62 4.5 CALM 0 0 0 0 1009.4 1008.5 0.0
21/09:30pm 22.2 21.8 14.1 60 4.8 N 9 11 5 6 1009.1 1008.3 0.0
21/09:00pm 22.6 22.3 14.4 60 4.9 NNE 9 11 5 6 1008.7 1007.9 0.0
21/08:30pm 23.5 23.0 13.7 54 5.8 N 9 15 5 8 1008.6 1007.8 0.0
21/08:00pm 24.5 22.9 12.8 48 6.8 NNW 13 19 7 10 1008.5 1007.7 0.0
21/07:30pm 25.4 24.0 12.3 44 7.6 WNW 11 17 6 9 1008.0 1007.2 0.0
21/07:00pm 26.0 23.9 12.5 43 7.9 NNW 15 20 8 11 1007.8 1007.0 0.0
21/06:30pm 26.0 23.8 13.2 45 7.5 WNW 17 24 9 13 1007.5 1006.7 0.0
21/06:00pm 25.6 24.0 12.8 45 7.5 NW 13 17 7 9 1007.4 1006.6 0.0
21/05:30pm 25.4 24.4 13.3 47 7.1 WNW 11 17 6 9 1007.5 1006.7 0.0
21/05:00pm 25.8 25.4 14.0 48 7.0 NNW 9 13 5 7 1007.7 1006.9 0.0
21/04:30pm 25.5 25.2 13.4 47 7.1 SW 7 13 4 7 1007.9 1007.1 0.0
21/04:00pm 25.1 25.1 14.3 51 6.5 ESE 7 11 4 6 1008.3 1007.5 0.0
21/03:30pm 23.7 23.7 13.6 53 5.9 NNW 6 11 3 6 1008.6 1007.8 0.0
21/03:00pm 23.4 23.3 13.8 54 5.7 WSW 7 15 4 8 1009.0 1008.2 0.0
21/02:30pm 23.1 21.5 13.8 55 5.5 NW 15 24 8 13 1009.4 1008.5 0.0
21/02:00pm 23.3 22.4 13.8 55 5.6 N 11 19 6 10 1009.5 1008.6 0.0
21/01:30pm 22.6 21.8 13.9 58 5.1 NNW 11 15 6 8 1009.8 1008.9 0.0
21/01:00pm 22.8 21.8 14.6 60 4.9 NNW 13 20 7 11 1010.0 1009.1 0.0
21/12:30pm 22.2 21.3 14.8 63 4.4 NNW 13 22 7 12 1010.2 1009.3 0.0
21/12:00pm 21.9 21.6 16.4 71 3.4 WNW 13 22 7 12 1010.2 1009.3 0.0
21/11:30am 20.8 20.9 15.6 72 3.1 W 9 15 5 8 1010.3 1009.4 0.0
21/11:19am 20.6 20.4 15.8 74 2.9 WNW 11 15 6 8 1010.3 1009.4 0.0
21/11:00am 20.0 19.7 16.4 80 2.2 W 13 17 7 9 1010.3 1009.4 0.0
21/10:30am 20.7 20.7 15.3 71 3.2 NNW 9 13 5 7 1010.0 1009.1 0.0
21/10:14am 20.9 22.2 15.2 70 3.4 NNE 2 7 1 4 1009.8 1008.9 0.0
21/10:00am 20.6 21.6 15.4 72 3.1 ENE 4 9 2 5 1009.7 1008.8 0.0
21/09:30am 19.4 20.2 15.9 80 2.1 S 6 11 3 6 1009.4 1008.5 0.0
21/09:10am 18.8 20.0 16.8 88 1.2 WSW 6 7 3 4 1009.5 1008.6 0.0
21/09:00am 18.1 18.9 16.3 89 1.1 NNW 7 11 4 6 1009.4 1008.5 7.8
21/08:30am 17.6 18.8 16.8 95 0.5 WNW 6 11 3 6 1008.9 1008.1 7.8
21/08:00am 17.2 17.3 16.6 96 0.4 WNW 11 15 6 8 1008.6 1007.8 7.8
21/07:30am 17.1 16.7 16.3 95 0.5 WNW 13 17 7 9 1008.1 1007.3 7.8
21/07:00am 17.4 18.0 16.8 96 0.4 W 9 11 5 6 1007.6 1006.8 7.8
21/06:31am 17.1 19.2 16.3 95 0.5 CALM 0 4 0 2 1007.2 1006.4 7.8
21/06:30am 17.1 19.2 16.3 95 0.5 CALM 0 4 0 2 1007.2 1006.4 7.8
21/06:00am 17.3 19.5 16.5 95 0.5 CALM 0 0 0 0 1006.8 1006.0 7.8
21/05:30am 17.1 18.2 16.5 96 0.4 NNW 6 6 3 3 1006.4 1005.6 7.8
21/05:00am 16.9 17.7 16.4 97 0.3 NNW 7 9 4 5 1006.1 1005.3 7.8
21/04:30am 17.0 17.9 16.7 98 0.2 NW 7 7 4 4 1005.8 1005.0 7.8
21/04:00am 17.0 19.2 16.5 97 0.3 CALM 0 0 0 0 1005.6 1004.8 7.8
21/03:30am 16.8 19.0 16.5 98 0.2 CALM 0 0 0 0 1005.3 1004.4 7.8
21/03:21am 16.7 18.8 16.2 97 0.3 CALM 0 0 0 0 1005.3 1004.4 7.8
21/03:00am 17.0 18.5 16.7 98 0.2 NNE 4 6 2 3 1005.2 1004.3 7.8
21/02:34am 16.7 18.5 16.4 98 0.2 N 2 6 1 3 1005.3 1004.4 7.8
21/02:30am 16.7 17.7 16.4 98 0.2 N 6 6 3 3 1005.3 1004.4 7.8
21/02:00am 16.9 18.0 16.6 98 0.2 NW 6 7 3 4 1005.2 1004.3 7.8
21/01:56am 16.9 18.0 16.6 98 0.2 NW 6 9 3 5 1005.2 1004.3 7.8
21/01:30am 17.0 17.6 16.7 98 0.2 W 9 13 5 7 1005.3 1004.4 7.8
21/01:00am 17.2 18.2 16.9 98 0.2 WSW 7 11 4 6 1005.2 1004.3 7.8
21/12:30am 17.2 18.7 16.6 96 0.4 SSW 4 6 2 3 1005.2 1004.3 7.8
21/12:00am 17.3 18.4 16.7 96 0.4 S 6 7 3 4 1005.3 1004.4 7.8
 
Date/Time
EDT
Temp
°C
App
Temp
°C
Dew
Point
°C
Rel
Hum
%
Delta-T
°C
Wind Press
QNH
hPa
Press
MSL
hPa
Rain since
9am
mm
Dir  Spd
km/h
Gust
km/h
Spd
kts
Gust
kts
20/11:30pm 17.3 18.4 16.7 96 0.4 S 6 7 3 4 1005.3 1004.4 7.8
20/11:01pm 17.1 18.2 16.6 97 0.3 SSW 6 6 3 3 1005.3 1004.4 7.8
20/11:00pm 17.0 18.1 16.5 97 0.3 SSW 6 6 3 3 1005.3 1004.4 7.8
20/10:30pm 17.1 18.0 16.6 97 0.3 S 7 9 4 5 1005.3 1004.4 7.8
20/10:00pm 17.3 19.4 16.3 94 0.6 CALM 0 0 0 0 1005.1 1004.2 7.8
20/09:30pm 17.1 19.1 16.0 93 0.7 CALM 0 0 0 0 1004.9 1004.0 7.8
20/09:00pm 17.2 17.6 16.2 94 0.6 W 9 11 5 6 1004.7 1003.8 7.0
20/08:30pm 18.0 18.8 17.4 96 0.4 NE 9 11 5 6 1004.5 1003.6 5.8
20/08:00pm 18.0 18.7 17.0 94 0.6 NE 9 48 5 26 1004.2 1003.3 5.4
20/07:30pm 18.2 18.8 16.7 91 0.9 NNE 9 13 5 7 1003.9 1003.0 5.4
20/07:00pm 18.7 19.1 16.3 86 1.4 NE 9 13 5 7 1003.5 1002.6 5.2
20/06:30pm 18.8 18.5 15.5 81 2.0 N 11 15 6 8 1003.2 1002.3 5.2
20/06:00pm 19.2 18.8 15.3 78 2.3 N 11 15 6 8 1002.9 1002.1 5.2
20/05:30pm 19.4 18.1 14.9 75 2.6 NNW 15 20 8 11 1002.8 1002.0 5.2
20/05:00pm 19.4 18.0 14.4 73 2.9 NNW 15 19 8 10 1002.6 1001.8 5.2
20/04:30pm 19.2 17.9 14.9 76 2.5 NNW 15 20 8 11 1002.2 1001.4 5.2
20/04:00pm 20.0 18.8 13.9 68 3.6 N 13 24 7 13 1002.0 1001.2 5.0
20/03:30pm 20.5 20.1 14.2 67 3.7 NW 9 17 5 9 1001.8 1001.0 5.0
20/03:00pm 20.5 20.3 14.6 69 3.5 NW 9 13 5 7 1001.7 1000.9 5.0
20/02:30pm 20.3 20.1 13.7 66 3.8 SW 7 11 4 6 1001.6 1000.8 5.0
20/02:00pm 19.4 17.3 14.6 74 2.8 ESE 19 28 10 15 1001.9 1001.1 5.0
20/01:30pm 19.3 16.6 15.6 79 2.2 E 24 32 13 17 1003.1 1002.2 5.0
20/01:00pm 18.9 16.9 15.4 80 2.1 E 20 32 11 17 1003.9 1003.0 5.0
20/12:30pm 18.5 17.0 16.3 87 1.3 E 19 22 10 12 1004.2 1003.3 5.0
20/12:00pm 18.1 18.0 16.1 88 1.2 SE 11 17 6 9 1004.0 1003.1 5.0
20/11:30am 17.5 17.0 15.8 90 1.0 SE 13 17 7 9 1004.9 1004.0 4.8
20/11:00am 17.7 17.7 15.3 86 1.4 NNE 9 19 5 10 1006.4 1005.6 4.2
20/10:30am 17.5 17.6 16.5 94 0.6 NW 11 17 6 9 1006.1 1005.3 3.6

Other formats

Comma delimited format used in spreadsheet applications
http://www.bom.gov.au/fwo/IDV60801/IDV60801.95896.axf

JavaScript Object Notation format (JSON) in row-major order
http://www.bom.gov.au/fwo/IDV60801/IDV60801.95896.json

Data quality

Most of these data are generated automatically and are frequently updated. Quality checks on data are not normally performed. It is possible for incorrect values to appear. Refer to information at About Latest Weather Observations and please check the disclaimer before using these data.